Leland, IL (60531)

7:12 AM CST on January 17, 2017 (GMT -0600)
Farm 34 | | Change Station

Elev 699 ft 41.59 °N, 88.85 °W | Updated 14 minutes ago

Overcast
Overcast
34.3 °F
Feels Like 34 °F
N
3.0
Wind Variable Wind from WSW
Gusts 9.0 mph

Today
High -- | Low -- °F
--% Chance of Precip.
Yesterday
High -- | Low -- °F
Precip. -- in
Pressure 29.84 in
Visibility 10.0 miles
Clouds Overcast 500 ft
Windchill 34 °F
Dew Point 34 °F
Humidity 98%
Rainfall 0.38 in
Snow Depth Not available.
7:18 AM 4:52 PM
Waning Gibbous, 72% visible
METAR KARR 171252Z 26008KT 10SM OVC005 02/01 A2982 RMK AO2 SLP103 T00220011 $
Pressure 29.84 in
Visibility 10.0 miles
Clouds Overcast 500 ft
Windchill 34 °F
Dew Point 34 °F
Humidity 98%
Rainfall 0.38 in
Snow Depth Not available.
7:18 AM 4:52 PM
Waning Gibbous, 72% visible
METAR KARR 171252Z 26008KT 10SM OVC005 02/01 A2982 RMK AO2 SLP103 T00220011 $

Get Your Daily Forecast Email!

Thanks for signing up!

Be on the lookout for a verification email in your inbox.

You'll start receiving the daily forecast at 8 AM.

×

10-Day Weather Forecast

Almanac

Astronomy

Jan. 17, 2017 Rise Set
Actual Time
Civil Twilight
Nautical Twilight
Astronomical Twilight
Moon
Length of Visible Light
Length of Day
Tomorrow will be .
, % of the Moon is Illuminated

Today's Extremes

State Highs State Lows

Community

WunderPhotos

Upload Photos

1,962,540 photos uploaded!

WunderBlog® & News

Nearby

Air Quality

  Air Quality AQ Index Pollutant
Not available.

Snow Depth

Station Depth Elevation

Earthquake Activity

City Distance Mag. Time & Date
Minimum magnitude displayed is 2.5.

Coastal Water Temperatures

Place Temperature

Stations

Nearby Weather Stations

Station Location Temp. Windchill Dew Point Humidity Wind Precip. Elev Updated Type
                   

Watches & Warnings

Flood Advisory
Issued: 10:54 PM CST Jan. 16, 2017 – National Weather Service

The National Weather Service in Chicago has issued a
* Flood Advisory for
the Illinois River at La Salle.
* Until Wednesday morning.
* At 1045 PM Monday the stage was 15.3 feet.
* Action stage is 19.0 feet.
* Flood stage is 20.0 feet.
* Forecast... the river will rise to near 19.7 feet by Wednesday
evening.
* Impact... at 20.0 feet... agricultural areas in La Salle, Spring
Valley, and Peru lowlands are flooded.


Lat... Lon 4137 8896 4135 8929 4126 8930 4128 8896






Marine Fog Advisory
Issued: 3:50 AM CST Jan. 17, 2017 – National Weather Service

... Dense fog advisory remains in effect until 10 am CST this
morning...

* visibility... less than 1/2 mile.

Precautionary/preparedness actions...

A dense fog advisory means visibilities will frequently be
reduced to less than one mile. Inexperienced mariners...
especially those operating smaller vessels should avoid
navigating in these conditions.